This is the latest recevied weather packets stored in our database for station/object ON7MOR-11. If no packets are shown the sender has not sent any weather packets the latest 10 day(s).
| Time | Temp. | Humidity | Pressure | Rain* | Wind** | Luminosity | Snow |
|---|---|---|---|---|---|---|---|
| 1777724880 | 22.78° C | 36% | 1018.2 hPa | - | - | - | - |
| 1777723980 | 22.22° C | 36% | 1018.3 hPa | - | - | - | - |
| 1777723080 | 22.22° C | 36% | 1018.5 hPa | - | - | - | - |
| 1777721280 | 21.67° C | 37% | 1018.9 hPa | - | - | - | - |
| 1777720380 | 21.67° C | 36% | 1019.1 hPa | - | - | - | - |
| 1777719480 | 21.11° C | 37% | 1019 hPa | - | - | - | - |
| 1777718580 | 21.11° C | 36% | 1019.2 hPa | - | - | - | - |
| 1777717680 | 21.11° C | 37% | 1019.3 hPa | - | - | - | - |
| 1777716779 | 21.11° C | 36% | 1019.4 hPa | - | - | - | - |
| 1777715879 | 20.56° C | 36% | 1019.5 hPa | - | - | - | - |
| 1777714079 | 21.11° C | 34% | 1019.6 hPa | - | - | - | - |
| 1777713179 | 21.11° C | 33% | 1019.6 hPa | - | - | - | - |
| 1777712279 | 21.11° C | 33% | 1019.7 hPa | - | - | - | - |
| 1777711379 | 20° C | 34% | 1019.8 hPa | - | - | - | - |
| 1777710479 | 18.89° C | 36% | 1019.8 hPa | - | - | - | - |
| 1777709579 | 18.89° C | 35% | 1019.8 hPa | - | - | - | - |
| 1777708678 | 18.89° C | 35% | 1019.8 hPa | - | - | - | - |
| 1777707778 | 18.89° C | 35% | 1019.8 hPa | - | - | - | - |
| 1777706878 | 18.89° C | 35% | 1019.7 hPa | - | - | - | - |
| 1777705978 | 20° C | 32% | 1019.7 hPa | - | - | - | - |
| 1777705078 | 18.33° C | 35% | 1019.8 hPa | - | - | - | - |
| 1777704177 | 18.33° C | 35% | 1019.8 hPa | - | - | - | - |
| 1777703277 | 18.33° C | 35% | 1019.7 hPa | - | - | - | - |
| 1777702377 | 18.33° C | 35% | 1019.7 hPa | - | - | - | - |
| 1777701477 | 18.33° C | 35% | 1019.6 hPa | - | - | - | - |
* Rain since midnight (hover to see other rain measurements)
** Current wind speed in m/s (hover to see current wind gust speed)